sensor_id;sensor_type;location;lat;lon;timestamp;pressure;altitude;pressure_sealevel;temperature;humidity
8366;BME280;4220;42.502;24.188;2022-11-04T00:00:07;95538.53;;;10.37;94.22
8366;BME280;4220;42.502;24.188;2022-11-04T00:02:34;95537.53;;;10.38;94.31
8366;BME280;4220;42.502;24.188;2022-11-04T00:05:03;95538.97;;;10.28;94.25
8366;BME280;4220;42.502;24.188;2022-11-04T00:07:29;95538.56;;;10.31;94.37
8366;BME280;4220;42.502;24.188;2022-11-04T00:10:14;95535.09;;;10.30;93.82
8366;BME280;4220;42.502;24.188;2022-11-04T00:12:41;95541.06;;;10.19;93.98
8366;BME280;4220;42.502;24.188;2022-11-04T00:15:07;95542.47;;;10.15;93.97
8366;BME280;4220;42.502;24.188;2022-11-04T00:17:57;95540.22;;;10.12;94.23
8366;BME280;4220;42.502;24.188;2022-11-04T00:20:25;95536.56;;;10.13;94.73
8366;BME280;4220;42.502;24.188;2022-11-04T00:23:10;95534.34;;;10.17;93.31
8366;BME280;4220;42.502;24.188;2022-11-04T00:26:02;95526.16;;;10.05;92.60
8366;BME280;4220;42.502;24.188;2022-11-04T00:28:46;95526.56;;;10.15;93.56
8366;BME280;4220;42.502;24.188;2022-11-04T00:31:17;95525.34;;;10.18;93.45
8366;BME280;4220;42.502;24.188;2022-11-04T00:34:01;95512.50;;;10.15;93.61
8366;BME280;4220;42.502;24.188;2022-11-04T00:36:29;95520.03;;;10.24;92.28
8366;BME280;4220;42.502;24.188;2022-11-04T00:38:56;95516.16;;;10.27;90.27
8366;BME280;4220;42.502;24.188;2022-11-04T00:41:23;95518.00;;;10.26;88.69
8366;BME280;4220;42.502;24.188;2022-11-04T00:43:55;95513.72;;;10.19;88.33
8366;BME280;4220;42.502;24.188;2022-11-04T00:46:22;95517.38;;;10.24;88.22
8366;BME280;4220;42.502;24.188;2022-11-04T00:48:49;95512.88;;;10.25;88.26
8366;BME280;4220;42.502;24.188;2022-11-04T00:51:16;95509.63;;;10.23;87.88
8366;BME280;4220;42.502;24.188;2022-11-04T00:53:45;95513.91;;;10.24;87.62
8366;BME280;4220;42.502;24.188;2022-11-04T00:56:12;95508.63;;;10.11;88.88
8366;BME280;4220;42.502;24.188;2022-11-04T00:58:39;95493.19;;;9.95;89.52
8366;BME280;4220;42.502;24.188;2022-11-04T01:01:07;95503.56;;;9.96;91.04
8366;BME280;4220;42.502;24.188;2022-11-04T01:03:34;95504.59;;;9.88;92.36
8366;BME280;4220;42.502;24.188;2022-11-04T01:06:02;95506.03;;;9.84;93.26
8366;BME280;4220;42.502;24.188;2022-11-04T01:08:29;95503.59;;;9.76;93.91
8366;BME280;4220;42.502;24.188;2022-11-04T01:11:00;95502.38;;;9.66;95.08
8366;BME280;4220;42.502;24.188;2022-11-04T01:13:27;95504.22;;;9.39;97.28
8366;BME280;4220;42.502;24.188;2022-11-04T01:15:56;95499.56;;;9.28;98.22
8366;BME280;4220;42.502;24.188;2022-11-04T01:18:23;95497.50;;;9.30;98.96
8366;BME280;4220;42.502;24.188;2022-11-04T01:20:50;95491.63;;;9.28;98.79
8366;BME280;4220;42.502;24.188;2022-11-04T01:23:17;95482.25;;;9.26;98.58
8366;BME280;4220;42.502;24.188;2022-11-04T01:25:44;95498.50;;;9.29;98.34
8366;BME280;4220;42.502;24.188;2022-11-04T01:28:12;95494.47;;;9.33;98.51
8366;BME280;4220;42.502;24.188;2022-11-04T01:30:39;95496.09;;;9.21;99.30
8366;BME280;4220;42.502;24.188;2022-11-04T01:33:06;95493.22;;;9.23;99.72
8366;BME280;4220;42.502;24.188;2022-11-04T01:35:33;95492.81;;;9.26;99.47
8366;BME280;4220;42.502;24.188;2022-11-04T01:37:59;95493.03;;;9.31;99.39
8366;BME280;4220;42.502;24.188;2022-11-04T01:40:26;95492.00;;;9.25;98.74
8366;BME280;4220;42.502;24.188;2022-11-04T01:42:53;95489.38;;;9.25;98.50
8366;BME280;4220;42.502;24.188;2022-11-04T01:45:21;95490.59;;;9.16;99.17
8366;BME280;4220;42.502;24.188;2022-11-04T01:47:52;95481.59;;;8.97;100.00
8366;BME280;4220;42.502;24.188;2022-11-04T01:50:23;95483.84;;;9.00;99.56
8366;BME280;4220;42.502;24.188;2022-11-04T01:52:53;95473.25;;;8.87;100.00
8366;BME280;4220;42.502;24.188;2022-11-04T01:55:27;95476.34;;;9.04;99.48
8366;BME280;4220;42.502;24.188;2022-11-04T01:58:02;95461.88;;;9.00;99.17
8366;BME280;4220;42.502;24.188;2022-11-04T02:00:31;95433.34;;;8.82;99.55
8366;BME280;4220;42.502;24.188;2022-11-04T02:03:01;95471.25;;;9.09;99.47
8366;BME280;4220;42.502;24.188;2022-11-04T02:05:30;95474.91;;;9.14;98.69
8366;BME280;4220;42.502;24.188;2022-11-04T02:07:58;95458.63;;;9.11;97.54
8366;BME280;4220;42.502;24.188;2022-11-04T02:10:28;95461.47;;;9.16;97.48
8366;BME280;4220;42.502;24.188;2022-11-04T02:12:57;95464.72;;;8.98;98.28
8366;BME280;4220;42.502;24.188;2022-11-04T02:15:32;95452.69;;;8.83;98.93
8366;BME280;4220;42.502;24.188;2022-11-04T02:18:12;95451.25;;;8.74;99.62
8366;BME280;4220;42.502;24.188;2022-11-04T02:24:20;95452.91;;;8.81;99.49
8366;BME280;4220;42.502;24.188;2022-11-04T02:27:17;95447.78;;;8.73;99.68
8366;BME280;4220;42.502;24.188;2022-11-04T02:30:04;95450.03;;;8.70;99.65
8366;BME280;4220;42.502;24.188;2022-11-04T02:32:39;95442.91;;;8.70;99.48
8366;BME280;4220;42.502;24.188;2022-11-04T02:35:13;95445.97;;;8.80;97.75
8366;BME280;4220;42.502;24.188;2022-11-04T02:37:52;95414.44;;;8.66;96.77
8366;BME280;4220;42.502;24.188;2022-11-04T02:40:26;95448.84;;;8.92;96.35
8366;BME280;4220;42.502;24.188;2022-11-04T02:42:59;95442.31;;;8.94;95.71
8366;BME280;4220;42.502;24.188;2022-11-04T02:45:32;95448.84;;;8.79;97.00
8366;BME280;4220;42.502;24.188;2022-11-04T02:48:06;95450.22;;;8.68;98.57
8366;BME280;4220;42.502;24.188;2022-11-04T02:50:39;95453.25;;;8.59;98.88
8366;BME280;4220;42.502;24.188;2022-11-04T02:53:11;95418.63;;;8.34;98.89
8366;BME280;4220;42.502;24.188;2022-11-04T02:55:44;95446.31;;;8.44;99.56
8366;BME280;4220;42.502;24.188;2022-11-04T02:58:14;95448.13;;;8.44;99.64
8366;BME280;4220;42.502;24.188;2022-11-04T03:00:45;95452.38;;;8.38;100.00
8366;BME280;4220;42.502;24.188;2022-11-04T03:03:19;95447.16;;;8.45;100.00
8366;BME280;4220;42.502;24.188;2022-11-04T03:05:49;95429.53;;;8.18;100.00
8366;BME280;4220;42.502;24.188;2022-11-04T03:08:23;95434.00;;;8.24;100.00
8366;BME280;4220;42.502;24.188;2022-11-04T03:10:54;95440.38;;;8.36;100.00
8366;BME280;4220;42.502;24.188;2022-11-04T03:13:28;95438.38;;;8.44;100.00
8366;BME280;4220;42.502;24.188;2022-11-04T03:16:01;95438.38;;;8.44;100.00
8366;BME280;4220;42.502;24.188;2022-11-04T03:18:33;95445.88;;;8.41;100.00
8366;BME280;4220;42.502;24.188;2022-11-04T03:21:05;95394.53;;;8.09;100.00
8366;BME280;4220;42.502;24.188;2022-11-04T03:23:34;95426.69;;;8.26;100.00
8366;BME280;4220;42.502;24.188;2022-11-04T03:26:08;95449.31;;;8.28;99.52
8366;BME280;4220;42.502;24.188;2022-11-04T03:28:45;95436.44;;;8.19;100.00
8366;BME280;4220;42.502;24.188;2022-11-04T03:31:20;95436.41;;;8.12;100.00
8366;BME280;4220;42.502;24.188;2022-11-04T03:33:50;95424.97;;;7.99;100.00
8366;BME280;4220;42.502;24.188;2022-11-04T03:36:18;95437.41;;;8.11;100.00
8366;BME280;4220;42.502;24.188;2022-11-04T03:38:45;95442.91;;;8.03;100.00
8366;BME280;4220;42.502;24.188;2022-11-04T03:41:16;95435.81;;;7.69;100.00
8366;BME280;4220;42.502;24.188;2022-11-04T03:43:43;95439.97;;;7.51;100.00
8366;BME280;4220;42.502;24.188;2022-11-04T03:46:10;95443.50;;;7.64;100.00
8366;BME280;4220;42.502;24.188;2022-11-04T03:48:40;95432.00;;;7.78;100.00
8366;BME280;4220;42.502;24.188;2022-11-04T03:51:09;95437.13;;;7.86;100.00
8366;BME280;4220;42.502;24.188;2022-11-04T03:53:36;95434.84;;;7.77;100.00
8366;BME280;4220;42.502;24.188;2022-11-04T03:56:15;95433.84;;;7.84;100.00
8366;BME280;4220;42.502;24.188;2022-11-04T03:58:55;95426.50;;;7.73;100.00
8366;BME280;4220;42.502;24.188;2022-11-04T04:01:35;95431.22;;;7.44;100.00
8366;BME280;4220;42.502;24.188;2022-11-04T04:04:12;95429.25;;;7.24;100.00
8366;BME280;4220;42.502;24.188;2022-11-04T04:06:42;95425.66;;;7.04;100.00
8366;BME280;4220;42.502;24.188;2022-11-04T04:09:17;95425.72;;;7.17;100.00
8366;BME280;4220;42.502;24.188;2022-11-04T04:11:52;95428.50;;;7.37;100.00
8366;BME280;4220;42.502;24.188;2022-11-04T04:14:26;95422.72;;;7.55;100.00
8366;BME280;4220;42.502;24.188;2022-11-04T04:17:09;95428.81;;;7.49;100.00
8366;BME280;4220;42.502;24.188;2022-11-04T04:19:41;95429.22;;;7.52;100.00
8366;BME280;4220;42.502;24.188;2022-11-04T04:22:12;95418.66;;;7.52;100.00
8366;BME280;4220;42.502;24.188;2022-11-04T04:24:44;95420.38;;;7.66;100.00
8366;BME280;4220;42.502;24.188;2022-11-04T04:27:30;95426.53;;;7.80;100.00
8366;BME280;4220;42.502;24.188;2022-11-04T04:30:02;95411.50;;;7.80;100.00
8366;BME280;4220;42.502;24.188;2022-11-04T04:32:33;95425.69;;;7.73;100.00
8366;BME280;4220;42.502;24.188;2022-11-04T04:35:03;95418.00;;;7.78;100.00
8366;BME280;4220;42.502;24.188;2022-11-04T04:37:48;95408.63;;;7.69;100.00
8366;BME280;4220;42.502;24.188;2022-11-04T04:40:18;95430.88;;;7.60;100.00
8366;BME280;4220;42.502;24.188;2022-11-04T04:43:10;95382.53;;;7.18;100.00
8366;BME280;4220;42.502;24.188;2022-11-04T04:45:57;95431.44;;;7.49;100.00
8366;BME280;4220;42.502;24.188;2022-11-04T04:48:24;95426.16;;;7.49;100.00
8366;BME280;4220;42.502;24.188;2022-11-04T04:50:52;95429.66;;;7.28;100.00
8366;BME280;4220;42.502;24.188;2022-11-04T04:53:21;95429.94;;;7.40;100.00
8366;BME280;4220;42.502;24.188;2022-11-04T04:55:48;95435.06;;;7.48;100.00
8366;BME280;4220;42.502;24.188;2022-11-04T04:58:15;95430.63;;;7.48;100.00
8366;BME280;4220;42.502;24.188;2022-11-04T05:00:42;95438.41;;;7.29;100.00
8366;BME280;4220;42.502;24.188;2022-11-04T05:03:08;95430.16;;;7.10;100.00
8366;BME280;4220;42.502;24.188;2022-11-04T05:05:35;95414.53;;;7.09;100.00
8366;BME280;4220;42.502;24.188;2022-11-04T05:08:07;95431.16;;;7.09;100.00
8366;BME280;4220;42.502;24.188;2022-11-04T05:10:34;95432.63;;;7.12;100.00
8366;BME280;4220;42.502;24.188;2022-11-04T05:13:01;95435.19;;;7.05;100.00
8366;BME280;4220;42.502;24.188;2022-11-04T05:15:45;95437.31;;;7.16;100.00
8366;BME280;4220;42.502;24.188;2022-11-04T05:18:12;95432.53;;;7.33;100.00
8366;BME280;4220;42.502;24.188;2022-11-04T05:20:39;95439.53;;;7.47;100.00
8366;BME280;4220;42.502;24.188;2022-11-04T05:23:07;95440.59;;;7.53;100.00
8366;BME280;4220;42.502;24.188;2022-11-04T05:25:36;95444.19;;;7.45;100.00
8366;BME280;4220;42.502;24.188;2022-11-04T05:28:04;95453.38;;;7.49;100.00
8366;BME280;4220;42.502;24.188;2022-11-04T05:30:31;95442.38;;;7.46;100.00
8366;BME280;4220;42.502;24.188;2022-11-04T05:32:58;95453.63;;;7.61;100.00
8366;BME280;4220;42.502;24.188;2022-11-04T05:35:25;95406.63;;;7.43;100.00
8366;BME280;4220;42.502;24.188;2022-11-04T05:37:54;95454.72;;;7.73;100.00
8366;BME280;4220;42.502;24.188;2022-11-04T05:40:22;95449.81;;;7.70;100.00
8366;BME280;4220;42.502;24.188;2022-11-04T05:42:49;95451.72;;;7.82;100.00
8366;BME280;4220;42.502;24.188;2022-11-04T05:45:16;95402.66;;;7.54;100.00
8366;BME280;4220;42.502;24.188;2022-11-04T05:47:44;95457.47;;;7.93;100.00
8366;BME280;4220;42.502;24.188;2022-11-04T05:50:10;95462.38;;;8.02;100.00
8366;BME280;4220;42.502;24.188;2022-11-04T05:52:37;95462.44;;;8.15;100.00
8366;BME280;4220;42.502;24.188;2022-11-04T05:55:05;95453.53;;;8.23;100.00
8366;BME280;4220;42.502;24.188;2022-11-04T05:57:33;95469.06;;;8.45;100.00
8366;BME280;4220;42.502;24.188;2022-11-04T06:00:03;95467.91;;;8.61;100.00
8366;BME280;4220;42.502;24.188;2022-11-04T06:02:31;95467.34;;;8.72;100.00
8366;BME280;4220;42.502;24.188;2022-11-04T06:04:58;95472.63;;;8.79;100.00
8366;BME280;4220;42.502;24.188;2022-11-04T06:07:24;95471.19;;;8.70;100.00
8366;BME280;4220;42.502;24.188;2022-11-04T06:09:51;95483.81;;;8.81;100.00
8366;BME280;4220;42.502;24.188;2022-11-04T06:12:18;95470.41;;;8.89;100.00
8366;BME280;4220;42.502;24.188;2022-11-04T06:14:46;95473.88;;;8.96;100.00
8366;BME280;4220;42.502;24.188;2022-11-04T06:17:14;95473.28;;;8.94;100.00
8366;BME280;4220;42.502;24.188;2022-11-04T06:19:41;95472.44;;;9.00;100.00
8366;BME280;4220;42.502;24.188;2022-11-04T06:22:08;95481.16;;;8.81;100.00
8366;BME280;4220;42.502;24.188;2022-11-04T06:24:35;95470.81;;;8.86;100.00
8366;BME280;4220;42.502;24.188;2022-11-04T06:27:02;95478.56;;;9.07;100.00
8366;BME280;4220;42.502;24.188;2022-11-04T06:29:29;95480.59;;;8.98;100.00
8366;BME280;4220;42.502;24.188;2022-11-04T06:31:58;95489.56;;;9.04;100.00
8366;BME280;4220;42.502;24.188;2022-11-04T06:34:25;95487.50;;;9.19;100.00
8366;BME280;4220;42.502;24.188;2022-11-04T06:36:51;95475.72;;;9.15;100.00
8366;BME280;4220;42.502;24.188;2022-11-04T06:39:18;95489.56;;;9.43;100.00
8366;BME280;4220;42.502;24.188;2022-11-04T06:41:46;95467.97;;;9.59;98.63
8366;BME280;4220;42.502;24.188;2022-11-04T06:44:12;95474.84;;;9.86;97.38
8366;BME280;4220;42.502;24.188;2022-11-04T06:46:40;95452.84;;;9.86;96.87
8366;BME280;4220;42.502;24.188;2022-11-04T06:49:11;95488.63;;;10.21;95.62
8366;BME280;4220;42.502;24.188;2022-11-04T06:51:39;95484.91;;;10.35;93.72
8366;BME280;4220;42.502;24.188;2022-11-04T06:54:06;95477.13;;;10.40;92.53
8366;BME280;4220;42.502;24.188;2022-11-04T06:56:33;95479.75;;;10.54;91.43
8366;BME280;4220;42.502;24.188;2022-11-04T06:59:00;95482.75;;;10.64;91.16
8366;BME280;4220;42.502;24.188;2022-11-04T07:01:29;95488.03;;;10.70;90.45
8366;BME280;4220;42.502;24.188;2022-11-04T07:03:57;95483.72;;;10.76;90.55
8366;BME280;4220;42.502;24.188;2022-11-04T07:06:26;95485.66;;;10.87;89.79
8366;BME280;4220;42.502;24.188;2022-11-04T07:08:55;95480.72;;;10.97;90.01
8366;BME280;4220;42.502;24.188;2022-11-04T07:11:23;95472.28;;;11.06;89.20
8366;BME280;4220;42.502;24.188;2022-11-04T07:13:51;95473.63;;;11.15;89.19
8366;BME280;4220;42.502;24.188;2022-11-04T07:16:18;95453.38;;;11.21;88.49
8366;BME280;4220;42.502;24.188;2022-11-04T07:18:45;95456.13;;;11.33;88.51
8366;BME280;4220;42.502;24.188;2022-11-04T07:21:12;95468.34;;;11.40;89.04
8366;BME280;4220;42.502;24.188;2022-11-04T07:23:40;95455.28;;;11.39;89.66
8366;BME280;4220;42.502;24.188;2022-11-04T07:26:09;95451.31;;;11.48;90.37
8366;BME280;4220;42.502;24.188;2022-11-04T07:28:37;95410.63;;;11.29;90.31
8366;BME280;4220;42.502;24.188;2022-11-04T07:31:06;95465.28;;;11.68;90.16
8366;BME280;4220;42.502;24.188;2022-11-04T07:33:33;95446.59;;;11.74;90.10
8366;BME280;4220;42.502;24.188;2022-11-04T07:36:02;95454.59;;;11.93;91.39
8366;BME280;4220;42.502;24.188;2022-11-04T07:38:29;95412.00;;;11.81;91.65
8366;BME280;4220;42.502;24.188;2022-11-04T07:40:58;95443.81;;;12.24;91.69
8366;BME280;4220;42.502;24.188;2022-11-04T07:43:25;95441.59;;;12.39;90.58
8366;BME280;4220;42.502;24.188;2022-11-04T07:45:58;95437.28;;;12.56;89.61
8366;BME280;4220;42.502;24.188;2022-11-04T07:48:25;95433.75;;;12.74;89.26
8366;BME280;4220;42.502;24.188;2022-11-04T07:50:54;95434.16;;;12.89;90.86
8366;BME280;4220;42.502;24.188;2022-11-04T07:53:21;95435.56;;;13.03;90.63
8366;BME280;4220;42.502;24.188;2022-11-04T07:55:48;95436.91;;;13.12;92.46
8366;BME280;4220;42.502;24.188;2022-11-04T07:58:17;95429.03;;;13.17;93.73
8366;BME280;4220;42.502;24.188;2022-11-04T08:00:44;95423.97;;;13.27;93.34
8366;BME280;4220;42.502;24.188;2022-11-04T08:03:11;95415.19;;;13.38;93.61
8366;BME280;4220;42.502;24.188;2022-11-04T08:05:38;95415.44;;;13.48;93.23
8366;BME280;4220;42.502;24.188;2022-11-04T08:08:04;95389.69;;;13.42;93.34
8366;BME280;4220;42.502;24.188;2022-11-04T08:10:32;95405.59;;;13.49;93.91
8366;BME280;4220;42.502;24.188;2022-11-04T08:12:59;95396.19;;;13.46;94.31
8366;BME280;4220;42.502;24.188;2022-11-04T08:15:27;95400.81;;;13.39;95.00
8366;BME280;4220;42.502;24.188;2022-11-04T08:17:54;95400.81;;;13.28;96.62
8366;BME280;4220;42.502;24.188;2022-11-04T08:20:20;95389.09;;;13.17;97.36
8366;BME280;4220;42.502;24.188;2022-11-04T08:22:47;95387.72;;;13.26;97.67
8366;BME280;4220;42.502;24.188;2022-11-04T08:25:14;95385.63;;;13.51;96.43
8366;BME280;4220;42.502;24.188;2022-11-04T08:27:41;95383.81;;;13.63;95.30
8366;BME280;4220;42.502;24.188;2022-11-04T08:30:09;95380.88;;;13.76;94.58
8366;BME280;4220;42.502;24.188;2022-11-04T08:32:37;95375.41;;;13.95;93.51
8366;BME280;4220;42.502;24.188;2022-11-04T08:35:05;95375.84;;;14.03;93.15
8366;BME280;4220;42.502;24.188;2022-11-04T08:37:33;95363.69;;;13.96;92.01
8366;BME280;4220;42.502;24.188;2022-11-04T08:40:00;95342.25;;;13.91;91.31
8366;BME280;4220;42.502;24.188;2022-11-04T08:42:27;95369.56;;;14.09;91.40
8366;BME280;4220;42.502;24.188;2022-11-04T08:44:54;95324.28;;;13.86;91.32
8366;BME280;4220;42.502;24.188;2022-11-04T08:47:21;95365.47;;;14.18;90.51
8366;BME280;4220;42.502;24.188;2022-11-04T08:49:50;95372.88;;;14.28;90.13
8366;BME280;4220;42.502;24.188;2022-11-04T08:52:16;95365.56;;;14.35;90.20
8366;BME280;4220;42.502;24.188;2022-11-04T08:54:43;95351.75;;;14.38;89.90
8366;BME280;4220;42.502;24.188;2022-11-04T08:57:10;95353.91;;;14.53;89.58
8366;BME280;4220;42.502;24.188;2022-11-04T08:59:37;95345.66;;;14.54;89.22
8366;BME280;4220;42.502;24.188;2022-11-04T09:02:04;95350.47;;;14.69;88.34
8366;BME280;4220;42.502;24.188;2022-11-04T09:04:31;95355.91;;;14.74;88.11
8366;BME280;4220;42.502;24.188;2022-11-04T09:07:01;95339.47;;;14.82;87.52
8366;BME280;4220;42.502;24.188;2022-11-04T09:09:29;95338.75;;;14.86;86.95
8366;BME280;4220;42.502;24.188;2022-11-04T09:11:56;95339.41;;;14.93;86.96
8366;BME280;4220;42.502;24.188;2022-11-04T09:14:23;95334.16;;;14.98;86.58
8366;BME280;4220;42.502;24.188;2022-11-04T09:16:50;95333.25;;;14.93;86.75
8366;BME280;4220;42.502;24.188;2022-11-04T09:19:18;95322.97;;;15.01;86.84
8366;BME280;4220;42.502;24.188;2022-11-04T09:21:45;95313.66;;;15.04;85.74
8366;BME280;4220;42.502;24.188;2022-11-04T09:24:13;95326.34;;;15.14;86.00
8366;BME280;4220;42.502;24.188;2022-11-04T09:26:40;95321.84;;;15.14;85.27
8366;BME280;4220;42.502;24.188;2022-11-04T09:29:09;95308.47;;;15.14;85.46
8366;BME280;4220;42.502;24.188;2022-11-04T09:31:36;95304.19;;;15.30;84.64
8366;BME280;4220;42.502;24.188;2022-11-04T09:34:03;95317.31;;;15.48;83.50
8366;BME280;4220;42.502;24.188;2022-11-04T09:36:30;95318.00;;;15.60;83.48
8366;BME280;4220;42.502;24.188;2022-11-04T09:38:57;95314.34;;;15.66;83.22
8366;BME280;4220;42.502;24.188;2022-11-04T09:41:39;95316.13;;;15.44;84.14
8366;BME280;4220;42.502;24.188;2022-11-04T09:44:17;95310.72;;;15.39;84.99
8366;BME280;4220;42.502;24.188;2022-11-04T09:46:48;95295.75;;;15.54;84.52
8366;BME280;4220;42.502;24.188;2022-11-04T09:49:15;95249.97;;;15.51;83.55
8366;BME280;4220;42.502;24.188;2022-11-04T09:51:43;95301.22;;;15.86;82.90
8366;BME280;4220;42.502;24.188;2022-11-04T09:54:19;95297.81;;;15.91;82.89
8366;BME280;4220;42.502;24.188;2022-11-04T09:56:49;95286.84;;;15.92;82.50
8366;BME280;4220;42.502;24.188;2022-11-04T09:59:22;95286.56;;;15.89;83.38
8366;BME280;4220;42.502;24.188;2022-11-04T10:02:00;95280.69;;;16.13;82.11
8366;BME280;4220;42.502;24.188;2022-11-04T10:04:41;95274.31;;;16.41;81.18
8366;BME280;4220;42.502;24.188;2022-11-04T10:07:23;95224.75;;;16.39;79.72
8366;BME280;4220;42.502;24.188;2022-11-04T10:09:59;95257.53;;;16.77;79.12
8366;BME280;4220;42.502;24.188;2022-11-04T10:12:44;95255.34;;;16.74;78.84
8366;BME280;4220;42.502;24.188;2022-11-04T10:15:51;95254.13;;;16.87;78.51
8366;BME280;4220;42.502;24.188;2022-11-04T10:18:32;95248.75;;;16.87;78.85
8366;BME280;4220;42.502;24.188;2022-11-04T10:21:10;95244.13;;;16.77;78.72
8366;BME280;4220;42.502;24.188;2022-11-04T10:23:53;95232.97;;;16.59;79.54
8366;BME280;4220;42.502;24.188;2022-11-04T10:26:29;95233.75;;;16.54;80.39
8366;BME280;4220;42.502;24.188;2022-11-04T10:29:05;95200.56;;;16.55;79.68
8366;BME280;4220;42.502;24.188;2022-11-04T10:31:36;95189.59;;;16.57;78.20
8366;BME280;4220;42.502;24.188;2022-11-04T10:34:05;95226.34;;;16.66;79.03
8366;BME280;4220;42.502;24.188;2022-11-04T10:36:35;95223.56;;;16.88;78.77
8366;BME280;4220;42.502;24.188;2022-11-04T10:39:08;95222.69;;;17.14;77.18
8366;BME280;4220;42.502;24.188;2022-11-04T10:41:39;95221.47;;;17.32;76.07
8366;BME280;4220;42.502;24.188;2022-11-04T10:44:15;95200.34;;;17.45;74.95
8366;BME280;4220;42.502;24.188;2022-11-04T10:46:52;95173.50;;;17.40;74.18
8366;BME280;4220;42.502;24.188;2022-11-04T10:52:34;95193.56;;;17.33;76.00
8366;BME280;4220;42.502;24.188;2022-11-04T10:55:05;95192.88;;;17.52;74.95
8366;BME280;4220;42.502;24.188;2022-11-04T10:57:37;95189.41;;;17.57;74.45
8366;BME280;4220;42.502;24.188;2022-11-04T11:00:07;95184.88;;;17.62;74.11
8366;BME280;4220;42.502;24.188;2022-11-04T11:02:45;95181.75;;;17.81;73.66
8366;BME280;4220;42.502;24.188;2022-11-04T11:05:19;95179.06;;;17.86;72.87
8366;BME280;4220;42.502;24.188;2022-11-04T11:07:49;95175.88;;;18.09;72.55
8366;BME280;4220;42.502;24.188;2022-11-04T11:10:19;95166.53;;;18.37;70.39
8366;BME280;4220;42.502;24.188;2022-11-04T11:12:56;95152.06;;;18.38;69.73
8366;BME280;4220;42.502;24.188;2022-11-04T11:15:30;95156.84;;;18.36;69.73
8366;BME280;4220;42.502;24.188;2022-11-04T11:18:09;95121.16;;;18.05;70.42
8366;BME280;4220;42.502;24.188;2022-11-04T11:20:39;95153.91;;;18.32;70.48
8366;BME280;4220;42.502;24.188;2022-11-04T11:23:32;95147.78;;;18.72;68.81
8366;BME280;4220;42.502;24.188;2022-11-04T11:26:00;95139.94;;;19.01;67.40
8366;BME280;4220;42.502;24.188;2022-11-04T11:28:28;95138.88;;;18.91;67.19
8366;BME280;4220;42.502;24.188;2022-11-04T11:30:59;95132.44;;;18.72;67.75
8366;BME280;4220;42.502;24.188;2022-11-04T11:33:30;95136.75;;;18.78;67.89
8366;BME280;4220;42.502;24.188;2022-11-04T11:36:01;95137.78;;;18.98;67.62
8366;BME280;4220;42.502;24.188;2022-11-04T11:38:32;95130.13;;;19.35;65.94
8366;BME280;4220;42.502;24.188;2022-11-04T11:41:05;95131.09;;;19.69;64.21
8366;BME280;4220;42.502;24.188;2022-11-04T11:43:34;95127.19;;;19.90;62.98
8366;BME280;4220;42.502;24.188;2022-11-04T11:46:03;95115.81;;;20.03;62.22
8366;BME280;4220;42.502;24.188;2022-11-04T11:48:32;95102.31;;;20.08;61.51
8366;BME280;4220;42.502;24.188;2022-11-04T11:51:04;95111.38;;;20.28;61.15
8366;BME280;4220;42.502;24.188;2022-11-04T11:53:32;95109.94;;;20.40;60.64
8366;BME280;4220;42.502;24.188;2022-11-04T11:56:06;95099.66;;;20.42;60.16
8366;BME280;4220;42.502;24.188;2022-11-04T11:58:44;95104.72;;;20.54;59.84
8366;BME280;4220;42.502;24.188;2022-11-04T12:01:18;95112.41;;;20.65;59.25
8366;BME280;4220;42.502;24.188;2022-11-04T12:03:50;95095.03;;;20.48;59.42
8366;BME280;4220;42.502;24.188;2022-11-04T12:06:28;95097.94;;;20.17;60.41
8366;BME280;4220;42.502;24.188;2022-11-04T12:09:16;95088.19;;;20.32;60.20
8366;BME280;4220;42.502;24.188;2022-11-04T12:12:04;95083.72;;;20.51;59.71
8366;BME280;4220;42.502;24.188;2022-11-04T12:14:45;95087.38;;;20.60;59.00
8366;BME280;4220;42.502;24.188;2022-11-04T12:17:29;95084.69;;;20.60;59.21
8366;BME280;4220;42.502;24.188;2022-11-04T12:20:14;95083.06;;;20.64;58.83
8366;BME280;4220;42.502;24.188;2022-11-04T12:22:48;95074.13;;;20.68;58.50
8366;BME280;4220;42.502;24.188;2022-11-04T12:25:23;95070.56;;;20.73;58.42
8366;BME280;4220;42.502;24.188;2022-11-04T12:27:58;95083.34;;;20.86;57.84
8366;BME280;4220;42.502;24.188;2022-11-04T12:30:26;95081.16;;;20.93;57.65
8366;BME280;4220;42.502;24.188;2022-11-04T12:33:10;95082.84;;;20.84;57.97
8366;BME280;4220;42.502;24.188;2022-11-04T12:35:52;95076.78;;;20.97;57.28
8366;BME280;4220;42.502;24.188;2022-11-04T12:38:41;95068.56;;;21.12;56.77
8366;BME280;4220;42.502;24.188;2022-11-04T12:41:19;95062.69;;;21.29;56.22
8366;BME280;4220;42.502;24.188;2022-11-04T12:43:57;95074.25;;;21.53;55.49
8366;BME280;4220;42.502;24.188;2022-11-04T12:46:35;95073.22;;;21.49;55.72
8366;BME280;4220;42.502;24.188;2022-11-04T12:49:22;95067.94;;;21.20;56.43
8366;BME280;4220;42.502;24.188;2022-11-04T12:52:00;95062.09;;;21.08;56.34
8366;BME280;4220;42.502;24.188;2022-11-04T12:54:41;95056.16;;;20.59;57.93
8366;BME280;4220;42.502;24.188;2022-11-04T12:57:19;95058.03;;;20.30;58.93
8366;BME280;4220;42.502;24.188;2022-11-04T12:59:59;95053.13;;;19.98;60.17
8366;BME280;4220;42.502;24.188;2022-11-04T13:02:31;95066.88;;;19.96;60.37
8366;BME280;4220;42.502;24.188;2022-11-04T13:05:07;95060.25;;;19.79;60.94
8366;BME280;4220;42.502;24.188;2022-11-04T13:07:46;95057.38;;;19.70;61.22
8366;BME280;4220;42.502;24.188;2022-11-04T13:10:19;95054.31;;;19.43;62.06
8366;BME280;4220;42.502;24.188;2022-11-04T13:12:50;95049.78;;;19.28;62.96
8366;BME280;4220;42.502;24.188;2022-11-04T13:15:21;95048.47;;;19.21;63.45
8366;BME280;4220;42.502;24.188;2022-11-04T13:17:50;95057.63;;;19.15;63.79
8366;BME280;4220;42.502;24.188;2022-11-04T13:20:26;95048.28;;;18.97;64.20
8366;BME280;4220;42.502;24.188;2022-11-04T13:22:59;95050.22;;;18.81;64.74
8366;BME280;4220;42.502;24.188;2022-11-04T13:25:29;95058.28;;;18.81;65.05
8366;BME280;4220;42.502;24.188;2022-11-04T13:28:00;95027.94;;;18.71;64.95
8366;BME280;4220;42.502;24.188;2022-11-04T13:30:34;95053.66;;;18.87;65.12
8366;BME280;4220;42.502;24.188;2022-11-04T13:33:10;95048.00;;;19.04;64.72
8366;BME280;4220;42.502;24.188;2022-11-04T13:35:48;95046.25;;;19.38;63.35
8366;BME280;4220;42.502;24.188;2022-11-04T13:38:21;95055.13;;;19.82;62.09
8366;BME280;4220;42.502;24.188;2022-11-04T13:40:59;95054.38;;;20.10;60.61